createdAt,value
2018-01-26T00:00:24.419Z,2.00
2018-01-26T00:02:52.012Z,1.90
2018-01-26T00:05:19.598Z,1.90
2018-01-26T00:07:47.954Z,1.90
2018-01-26T00:10:15.539Z,1.90
2018-01-26T00:12:43.903Z,1.90
2018-01-26T00:15:11.490Z,1.90
2018-01-26T00:17:39.840Z,1.90
2018-01-26T00:20:07.423Z,1.90
2018-01-26T00:22:35.015Z,1.90
2018-01-26T00:25:02.607Z,1.90
2018-01-26T00:27:30.242Z,1.90
2018-01-26T00:29:57.831Z,1.90
2018-01-26T00:32:25.434Z,1.90
2018-01-26T00:34:53.026Z,1.90
2018-01-26T00:37:21.374Z,1.90
2018-01-26T00:39:48.958Z,1.80
2018-01-26T00:42:16.554Z,1.80
2018-01-26T00:44:44.183Z,1.90
2018-01-26T00:47:11.766Z,1.80
2018-01-26T00:49:40.122Z,1.80
2018-01-26T00:52:07.706Z,1.90
2018-01-26T00:54:36.070Z,1.80
2018-01-26T00:57:03.706Z,1.80
2018-01-26T00:59:31.300Z,1.80
2018-01-26T01:01:58.894Z,1.90
2018-01-26T01:04:27.246Z,1.80
2018-01-26T01:06:54.840Z,1.80
2018-01-26T01:09:23.193Z,1.80
2018-01-26T01:11:50.774Z,1.80
2018-01-26T01:14:18.363Z,1.80
2018-01-26T01:16:45.955Z,1.80
2018-01-26T01:19:13.546Z,1.80
2018-01-26T01:21:41.143Z,1.80
2018-01-26T01:24:09.503Z,1.80
2018-01-26T01:26:37.100Z,1.80
2018-01-26T01:29:05.498Z,1.80
2018-01-26T01:31:33.090Z,1.80
2018-01-26T01:34:00.679Z,1.80
2018-01-26T01:36:28.266Z,1.80
2018-01-26T01:38:55.859Z,1.80
2018-01-26T01:41:23.518Z,1.90
2018-01-26T01:43:51.147Z,1.80
2018-01-26T01:46:18.738Z,1.90
2018-01-26T01:48:58.797Z,1.90
2018-01-26T01:51:26.386Z,1.90
2018-01-26T01:53:53.980Z,1.90
2018-01-26T01:56:21.566Z,1.90
2018-01-26T01:58:49.924Z,1.90
2018-01-26T02:01:17.515Z,1.90
2018-01-26T02:03:45.867Z,1.80
2018-01-26T02:06:13.454Z,1.80
2018-01-26T02:08:41.037Z,1.80
2018-01-26T02:11:09.389Z,1.80
2018-01-26T02:13:36.974Z,1.80
2018-01-26T02:16:05.375Z,1.70
2018-01-26T02:18:32.961Z,1.70
2018-01-26T02:21:00.547Z,1.70
2018-01-26T02:23:28.134Z,1.70
2018-01-26T02:25:55.722Z,1.70
2018-01-26T02:28:24.070Z,1.60
2018-01-26T02:30:51.666Z,1.60
2018-01-26T02:33:20.017Z,1.60
2018-01-26T02:35:47.606Z,1.60
2018-01-26T02:38:15.962Z,1.60
2018-01-26T02:40:44.553Z,1.70
2018-01-26T02:43:12.143Z,1.70
2018-01-26T02:45:40.498Z,1.70
2018-01-26T02:48:08.083Z,1.70
2018-01-26T02:50:36.438Z,1.70
2018-01-26T02:53:04.030Z,1.70
2018-01-26T02:55:32.432Z,1.70
2018-01-26T02:58:00.028Z,1.60
2018-01-26T03:00:27.618Z,1.60
2018-01-26T03:02:55.220Z,1.60
2018-01-26T03:05:23.582Z,1.70
2018-01-26T03:07:51.186Z,1.70
2018-01-26T03:10:18.770Z,1.70
2018-01-26T03:12:46.355Z,1.70
2018-01-26T03:15:13.943Z,1.70
2018-01-26T03:17:41.526Z,1.70
2018-01-26T03:20:09.881Z,1.70
2018-01-26T03:22:37.470Z,1.70
2018-01-26T03:25:05.870Z,1.70
2018-01-26T03:27:33.458Z,1.70
2018-01-26T03:30:01.049Z,1.70
2018-01-26T03:32:28.713Z,1.70
2018-01-26T03:34:56.304Z,1.70
2018-01-26T03:37:23.898Z,1.70
2018-01-26T03:39:51.492Z,1.70
2018-01-26T03:42:19.083Z,1.70
2018-01-26T03:44:46.679Z,1.70
2018-01-26T03:47:15.071Z,1.70
2018-01-26T03:49:42.660Z,1.70
2018-01-26T03:52:10.242Z,1.70
2018-01-26T03:54:37.826Z,1.80
2018-01-26T03:57:05.421Z,1.80
2018-01-26T03:59:33.774Z,1.80
2018-01-26T04:02:01.365Z,1.80
2018-01-26T04:04:29.719Z,1.80
2018-01-26T04:06:57.307Z,1.80
2018-01-26T04:09:25.658Z,1.80
2018-01-26T04:11:53.300Z,1.80
2018-01-26T04:14:20.900Z,1.80
2018-01-26T04:16:48.519Z,1.80
2018-01-26T04:19:16.107Z,1.80
2018-01-26T04:21:43.694Z,1.80
2018-01-26T04:24:11.284Z,1.80
2018-01-26T04:26:39.643Z,1.80
2018-01-26T04:29:07.226Z,1.80
2018-01-26T04:31:35.595Z,1.80
2018-01-26T04:34:03.183Z,1.80
2018-01-26T04:36:31.538Z,1.80
2018-01-26T04:38:59.131Z,1.80
2018-01-26T04:41:27.520Z,1.80
2018-01-26T04:43:55.110Z,1.80
2018-01-26T04:46:22.700Z,1.80
2018-01-26T04:48:50.290Z,1.80
2018-01-26T04:51:17.879Z,1.90
2018-01-26T04:53:46.227Z,1.90
2018-01-26T04:56:13.814Z,1.80
2018-01-26T04:58:42.166Z,1.80
2018-01-26T05:01:09.750Z,1.80
2018-01-26T05:03:38.104Z,1.80
2018-01-26T05:06:05.714Z,1.80
2018-01-26T05:08:34.066Z,1.90
2018-01-26T05:11:01.651Z,1.90
2018-01-26T05:13:29.998Z,1.90
2018-01-26T05:15:57.594Z,1.90
2018-01-26T05:18:25.995Z,1.90
2018-01-26T05:20:54.357Z,1.90
2018-01-26T05:23:21.951Z,1.90
2018-01-26T05:25:49.545Z,1.80
2018-01-26T05:28:17.143Z,1.80
2018-01-26T05:30:44.742Z,1.80
2018-01-26T05:33:12.330Z,1.80
2018-01-26T05:35:39.927Z,1.80
2018-01-26T05:38:07.514Z,1.80
2018-01-26T05:40:35.878Z,1.80
2018-01-26T05:43:03.483Z,1.80
2018-01-26T05:45:31.084Z,1.80
2018-01-26T05:47:58.674Z,1.80
2018-01-26T05:50:26.267Z,1.80
2018-01-26T05:52:54.633Z,1.90
2018-01-26T05:55:22.264Z,1.90
2018-01-26T05:57:49.896Z,1.80
2018-01-26T06:00:17.490Z,1.80
2018-01-26T06:02:45.137Z,1.80
2018-01-26T06:05:12.734Z,1.80
2018-01-26T06:07:40.323Z,1.80
2018-01-26T06:10:07.918Z,1.70
2018-01-26T06:12:35.546Z,1.70
2018-01-26T06:15:03.142Z,1.70
2018-01-26T06:17:30.802Z,1.80
2018-01-26T06:19:59.155Z,1.70
2018-01-26T06:22:26.791Z,1.80
2018-01-26T06:24:54.406Z,1.80
2018-01-26T06:27:22.795Z,1.80
2018-01-26T06:29:51.178Z,1.80
2018-01-26T06:32:19.582Z,1.80
2018-01-26T06:34:47.179Z,1.80
2018-01-26T06:37:14.770Z,1.80
2018-01-26T06:39:42.374Z,1.70
2018-01-26T06:42:09.957Z,1.80
2018-01-26T06:44:37.554Z,1.70
2018-01-26T06:47:05.148Z,1.70
2018-01-26T06:49:33.508Z,1.70
2018-01-26T06:52:01.091Z,1.70
2018-01-26T06:54:29.448Z,1.70
2018-01-26T06:56:57.035Z,1.70
2018-01-26T06:59:24.626Z,1.70
2018-01-26T07:02:02.962Z,1.70
2018-01-26T07:04:30.551Z,1.70
2018-01-26T07:06:58.138Z,1.60
2018-01-26T07:09:26.499Z,1.70
2018-01-26T07:11:54.093Z,1.60
2018-01-26T07:14:22.451Z,1.70
2018-01-26T07:16:50.038Z,1.60
2018-01-26T07:19:18.439Z,1.70
2018-01-26T07:21:46.826Z,1.70
2018-01-26T07:24:14.427Z,1.70
2018-01-26T07:26:42.067Z,1.70
2018-01-26T07:29:09.654Z,1.70
2018-01-26T07:31:37.241Z,1.70
2018-01-26T07:34:04.854Z,1.70
2018-01-26T07:36:32.450Z,1.80
2018-01-26T07:39:00.051Z,1.80
2018-01-26T07:41:27.643Z,1.80
2018-01-26T07:43:55.227Z,1.80
2018-01-26T07:46:22.819Z,1.80
2018-01-26T07:48:50.414Z,1.80
2018-01-26T07:51:18.008Z,1.80
2018-01-26T07:53:45.616Z,1.90
2018-01-26T07:56:13.198Z,1.90
2018-01-26T07:58:40.793Z,1.90
2018-01-26T08:01:09.150Z,1.90
2018-01-26T08:03:36.783Z,1.90
2018-01-26T08:06:04.487Z,1.90
2018-01-26T08:08:33.003Z,2.00
2018-01-26T08:11:00.605Z,2.00
2018-01-26T08:13:28.199Z,2.00
2018-01-26T08:15:55.786Z,2.00
2018-01-26T08:18:24.351Z,2.10
2018-01-26T08:20:51.943Z,2.10
2018-01-26T08:23:19.539Z,2.10
2018-01-26T08:25:47.126Z,2.20
2018-01-26T08:28:14.715Z,2.20
2018-01-26T08:30:42.305Z,2.30
2018-01-26T08:33:09.907Z,2.30
2018-01-26T08:35:37.503Z,2.40
2018-01-26T08:38:05.095Z,2.40
2018-01-26T08:40:32.683Z,2.40
2018-01-26T08:43:00.275Z,2.40
2018-01-26T08:45:27.864Z,2.50
2018-01-26T08:47:55.455Z,2.50
2018-01-26T08:50:23.810Z,2.50
2018-01-26T08:52:51.406Z,2.50
2018-01-26T08:55:19.536Z,2.60
2018-01-26T08:57:47.128Z,2.60
2018-01-26T09:00:15.545Z,2.70
2018-01-26T09:02:43.138Z,2.70
2018-01-26T09:05:10.726Z,2.70
2018-01-26T09:07:38.311Z,2.80
2018-01-26T09:10:06.674Z,2.80
2018-01-26T09:12:34.260Z,2.80
2018-01-26T09:15:02.618Z,2.80
2018-01-26T09:17:30.982Z,2.80
2018-01-26T09:19:59.380Z,2.90
2018-01-26T09:22:27.033Z,2.90
2018-01-26T09:24:54.591Z,2.90
2018-01-26T09:27:22.180Z,3.00
2018-01-26T09:29:49.794Z,3.00
2018-01-26T09:32:17.387Z,3.10
2018-01-26T09:34:44.971Z,3.10
2018-01-26T09:37:12.586Z,3.10
2018-01-26T09:39:40.228Z,3.10
2018-01-26T09:42:08.590Z,3.10
2018-01-26T09:44:36.182Z,3.10
2018-01-26T09:47:03.798Z,3.20
2018-01-26T09:49:31.430Z,3.20
2018-01-26T09:51:59.014Z,3.20
2018-01-26T09:54:26.603Z,3.20
2018-01-26T09:56:54.190Z,3.20
2018-01-26T09:59:22.542Z,3.40
2018-01-26T10:01:50.130Z,3.30
2018-01-26T10:04:17.714Z,3.40
2018-01-26T10:06:46.084Z,3.40
2018-01-26T10:09:14.443Z,3.50
2018-01-26T10:11:42.043Z,3.50
2018-01-26T10:14:10.403Z,3.50
2018-01-26T10:16:38.003Z,3.50
2018-01-26T10:19:05.602Z,3.50
2018-01-26T10:21:33.218Z,3.60
2018-01-26T10:24:01.571Z,3.70
2018-01-26T10:26:29.164Z,3.60
2018-01-26T10:28:58.543Z,3.80
2018-01-26T10:31:26.139Z,3.80
2018-01-26T10:33:54.490Z,3.90
2018-01-26T10:36:22.086Z,3.90
2018-01-26T10:38:49.683Z,4.00
2018-01-26T10:41:17.274Z,4.00
2018-01-26T10:43:44.894Z,4.00
2018-01-26T10:46:12.478Z,4.00
2018-01-26T10:48:40.114Z,4.10
2018-01-26T10:51:08.539Z,4.00
2018-01-26T10:53:36.131Z,3.90
2018-01-26T10:56:03.727Z,4.00
2018-01-26T10:58:32.079Z,4.10
2018-01-26T11:00:59.671Z,4.10
2018-01-26T11:03:28.034Z,4.10
2018-01-26T11:05:55.635Z,4.10
2018-01-26T11:08:23.224Z,4.20
2018-01-26T11:10:50.814Z,4.10
2018-01-26T11:13:18.406Z,4.00
2018-01-26T11:15:45.998Z,4.00
2018-01-26T11:18:13.610Z,3.90
2018-01-26T11:20:41.254Z,4.00
2018-01-26T11:23:08.850Z,4.00
2018-01-26T11:25:36.439Z,4.00
2018-01-26T11:28:04.818Z,3.90
2018-01-26T11:30:33.180Z,3.90
2018-01-26T11:33:00.810Z,3.80
2018-01-26T11:35:28.407Z,3.80
2018-01-26T11:37:56.003Z,3.80
2018-01-26T11:40:24.366Z,3.80
2018-01-26T11:42:52.728Z,3.90
2018-01-26T11:45:20.310Z,3.90
2018-01-26T11:47:47.900Z,3.90
2018-01-26T11:50:16.290Z,3.90
2018-01-26T11:52:43.878Z,3.90
2018-01-26T11:55:11.479Z,3.80
2018-01-26T11:57:39.082Z,4.00
2018-01-26T12:00:06.671Z,4.00
2018-01-26T12:02:34.258Z,4.00
2018-01-26T12:05:01.847Z,4.10
2018-01-26T12:07:29.435Z,4.00
2018-01-26T12:09:57.783Z,4.10
2018-01-26T12:12:25.364Z,4.10
2018-01-26T12:14:52.968Z,4.10
2018-01-26T12:17:20.558Z,4.20
2018-01-26T12:19:48.166Z,4.10
2018-01-26T12:22:16.547Z,4.00
2018-01-26T12:24:44.913Z,4.00
2018-01-26T12:27:12.578Z,4.00
2018-01-26T12:29:40.175Z,4.10
2018-01-26T12:32:08.534Z,4.20
2018-01-26T12:34:36.198Z,4.20
2018-01-26T12:37:04.563Z,4.30
2018-01-26T12:39:32.732Z,4.30
2018-01-26T12:42:00.326Z,4.40
2018-01-26T12:44:27.952Z,4.50
2018-01-26T12:46:55.539Z,4.40
2018-01-26T12:49:23.153Z,4.50
2018-01-26T12:51:50.744Z,4.50
2018-01-26T12:54:18.355Z,4.40
2018-01-26T12:56:45.940Z,4.40
2018-01-26T12:59:13.541Z,4.30
2018-01-26T13:01:41.169Z,4.30
2018-01-26T13:04:09.571Z,4.40
2018-01-26T13:06:37.174Z,4.40
2018-01-26T13:09:04.836Z,4.50
2018-01-26T13:11:32.441Z,4.60
2018-01-26T13:14:00.834Z,4.60
2018-01-26T13:16:28.432Z,4.70
2018-01-26T13:18:56.082Z,4.80
2018-01-26T13:21:23.674Z,4.70
2018-01-26T13:23:51.283Z,4.70
2018-01-26T13:26:19.660Z,4.70
2018-01-26T13:28:48.019Z,4.70
2018-01-26T13:31:15.623Z,4.70
2018-01-26T13:33:43.989Z,4.60
2018-01-26T13:36:11.602Z,4.60
2018-01-26T13:38:39.199Z,4.50
2018-01-26T13:41:06.843Z,4.50
2018-01-26T13:43:34.472Z,4.50
2018-01-26T13:46:02.071Z,4.60
2018-01-26T13:48:29.759Z,4.50
2018-01-26T13:50:57.352Z,4.50
2018-01-26T13:53:24.951Z,4.50
2018-01-26T13:55:52.555Z,4.50
2018-01-26T13:58:20.199Z,4.40
2018-01-26T14:00:47.799Z,4.50
2018-01-26T14:03:15.399Z,4.50
2018-01-26T14:05:43.003Z,4.40
2018-01-26T14:08:10.663Z,4.40
2018-01-26T14:10:38.256Z,4.30
2018-01-26T14:13:05.856Z,4.20
2018-01-26T14:15:33.469Z,4.20
2018-01-26T14:18:01.063Z,4.20
2018-01-26T14:20:28.684Z,4.20
2018-01-26T14:22:56.289Z,4.10
2018-01-26T14:25:23.887Z,4.10
2018-01-26T14:27:51.491Z,4.10
2018-01-26T14:30:19.079Z,4.10
2018-01-26T14:32:46.682Z,4.10
2018-01-26T14:35:14.342Z,4.10
2018-01-26T14:37:41.951Z,4.10
2018-01-26T14:40:09.561Z,4.00
2018-01-26T14:42:37.973Z,3.90
2018-01-26T14:45:05.578Z,3.90
2018-01-26T14:47:33.172Z,3.90
2018-01-26T14:50:01.539Z,3.80
2018-01-26T14:52:29.127Z,3.80
2018-01-26T14:54:56.726Z,3.70
2018-01-26T14:57:24.319Z,3.60
2018-01-26T14:59:51.915Z,3.50
2018-01-26T15:02:20.282Z,3.40
2018-01-26T15:04:47.895Z,3.40
2018-01-26T15:07:15.526Z,3.30
2018-01-26T15:09:43.934Z,3.30
2018-01-26T15:12:11.517Z,3.30
2018-01-26T15:14:39.106Z,3.20
2018-01-26T15:17:06.691Z,3.20
2018-01-26T15:19:34.282Z,3.20
2018-01-26T15:22:02.631Z,3.20
2018-01-26T15:24:30.256Z,3.20
2018-01-26T15:26:57.843Z,3.20
2018-01-26T15:29:25.434Z,3.20
2018-01-26T15:31:53.039Z,3.20
2018-01-26T15:34:20.655Z,3.20
2018-01-26T15:36:48.253Z,3.20
2018-01-26T15:39:16.604Z,3.10
2018-01-26T15:41:44.242Z,3.20
2018-01-26T15:44:11.831Z,3.10
2018-01-26T15:46:39.420Z,3.10
2018-01-26T15:49:07.003Z,3.10
2018-01-26T15:51:34.594Z,3.10
2018-01-26T15:54:02.179Z,3.10
2018-01-26T15:56:29.774Z,3.10
2018-01-26T15:58:58.131Z,3.10
2018-01-26T16:01:25.733Z,3.00
2018-01-26T16:03:53.338Z,3.10
2018-01-26T16:06:20.969Z,3.00
2018-01-26T16:08:48.842Z,3.00
2018-01-26T16:11:16.431Z,3.00
2018-01-26T16:13:44.015Z,3.00
2018-01-26T16:16:11.611Z,3.00
2018-01-26T16:18:39.266Z,2.90
2018-01-26T16:21:06.859Z,2.90
2018-01-26T16:23:35.214Z,2.90
2018-01-26T16:26:02.853Z,2.90
2018-01-26T16:28:30.442Z,2.90
2018-01-26T16:30:58.050Z,2.90
2018-01-26T16:33:25.647Z,2.90
2018-01-26T16:35:53.235Z,2.90
2018-01-26T16:38:20.836Z,2.90
2018-01-26T16:40:49.255Z,2.80
2018-01-26T16:43:16.843Z,2.80
2018-01-26T16:45:44.436Z,2.80
2018-01-26T16:48:12.061Z,2.70
2018-01-26T16:50:39.662Z,2.70
2018-01-26T16:53:07.265Z,2.70
2018-01-26T16:55:35.954Z,2.70
2018-01-26T16:58:04.494Z,2.70
2018-01-26T17:00:33.081Z,2.70
2018-01-26T17:03:01.676Z,2.70
2018-01-26T17:05:30.063Z,2.70
2018-01-26T17:07:57.663Z,2.70
2018-01-26T17:10:25.270Z,2.70
2018-01-26T17:12:52.865Z,2.70
2018-01-26T17:15:21.225Z,2.70
2018-01-26T17:17:48.928Z,2.70
2018-01-26T17:20:16.565Z,2.60
2018-01-26T17:22:44.174Z,2.60
2018-01-26T17:25:11.777Z,2.60
2018-01-26T17:27:39.391Z,2.60
2018-01-26T17:30:06.985Z,2.70
2018-01-26T17:32:34.623Z,2.70
2018-01-26T17:35:02.285Z,2.70
2018-01-26T17:37:29.907Z,2.60
2018-01-26T17:39:57.511Z,2.70
2018-01-26T17:42:25.878Z,2.70
2018-01-26T17:44:54.255Z,2.70
2018-01-26T17:47:21.858Z,2.70
2018-01-26T17:49:49.447Z,2.70
2018-01-26T17:52:18.720Z,2.70
2018-01-26T17:54:46.339Z,2.70
2018-01-26T17:57:13.963Z,2.70
2018-01-26T17:59:41.598Z,2.80
2018-01-26T18:02:10.023Z,2.80
2018-01-26T18:04:37.642Z,2.80
2018-01-26T18:07:05.997Z,2.80
2018-01-26T18:09:33.583Z,2.80
2018-01-26T18:12:01.223Z,2.80
2018-01-26T18:14:28.814Z,2.80
2018-01-26T18:16:56.486Z,2.80
2018-01-26T18:19:24.847Z,2.80
2018-01-26T18:21:52.457Z,2.80
2018-01-26T18:24:20.046Z,2.80
2018-01-26T18:26:48.442Z,2.90
2018-01-26T18:29:16.814Z,2.80
2018-01-26T18:31:45.214Z,2.80
2018-01-26T18:34:12.839Z,2.80
2018-01-26T18:36:40.433Z,2.80
2018-01-26T18:39:08.798Z,2.80
2018-01-26T18:41:36.417Z,2.80
2018-01-26T18:44:04.055Z,2.90
2018-01-26T18:46:31.650Z,2.90
2018-01-26T18:48:59.305Z,2.90
2018-01-26T18:51:27.720Z,2.90
2018-01-26T18:53:55.327Z,2.90
2018-01-26T18:56:23.695Z,2.90
2018-01-26T18:58:51.290Z,2.90
2018-01-26T19:01:18.893Z,2.90
2018-01-26T19:03:46.535Z,2.90
2018-01-26T19:06:14.187Z,3.00
2018-01-26T19:08:41.795Z,3.00
2018-01-26T19:11:12.641Z,3.00
2018-01-26T19:13:40.289Z,3.00
2018-01-26T19:16:07.894Z,3.00
2018-01-26T19:18:36.470Z,3.00
2018-01-26T19:21:04.110Z,3.00
2018-01-26T19:23:31.707Z,3.00
2018-01-26T19:25:59.323Z,3.00
2018-01-26T19:28:26.919Z,3.00
2018-01-26T19:30:54.512Z,2.90
2018-01-26T19:33:22.185Z,2.90
2018-01-26T19:35:50.619Z,2.90
2018-01-26T19:38:18.230Z,2.90
2018-01-26T19:40:46.647Z,2.90
2018-01-26T19:43:14.315Z,2.90
2018-01-26T19:45:41.919Z,2.90
2018-01-26T19:48:09.513Z,2.90
2018-01-26T19:50:37.901Z,2.90
2018-01-26T19:53:06.270Z,2.90
2018-01-26T19:55:34.635Z,2.90
2018-01-26T19:58:02.239Z,2.90
2018-01-26T20:00:29.862Z,2.90
2018-01-26T20:06:03.898Z,2.90
2018-01-26T20:08:38.278Z,2.90
2018-01-26T20:11:05.882Z,2.90
2018-01-26T20:13:33.477Z,2.90
2018-01-26T20:16:01.584Z,2.90
2018-01-26T20:18:30.395Z,2.90
2018-01-26T20:20:58.329Z,2.90
2018-01-26T20:23:26.942Z,2.90
2018-01-26T20:25:54.551Z,2.90
2018-01-26T20:28:23.378Z,2.90
2018-01-26T20:30:50.991Z,2.90
2018-01-26T20:33:19.015Z,2.90
2018-01-26T20:35:46.986Z,2.90
2018-01-26T20:38:14.636Z,3.00
2018-01-26T20:40:42.246Z,2.90
2018-01-26T20:43:09.854Z,2.90
2018-01-26T20:45:39.720Z,3.00
2018-01-26T20:48:07.686Z,2.90
2018-01-26T20:50:35.515Z,3.00
2018-01-26T20:53:04.140Z,2.90
2018-01-26T20:55:31.978Z,2.90
2018-01-26T20:58:00.507Z,2.90
2018-01-26T21:00:28.139Z,2.90
2018-01-26T21:02:56.510Z,2.90
2018-01-26T21:05:24.406Z,2.90
2018-01-26T21:07:52.002Z,2.90
2018-01-26T21:10:20.199Z,2.90
2018-01-26T21:12:48.129Z,2.90
2018-01-26T21:15:15.966Z,2.90
2018-01-26T21:17:44.886Z,2.90
2018-01-26T21:20:12.494Z,2.90
2018-01-26T21:22:41.112Z,2.90
2018-01-26T21:25:08.721Z,2.80
2018-01-26T21:27:36.375Z,2.90
2018-01-26T21:30:04.138Z,2.90
2018-01-26T21:32:31.742Z,2.90
2018-01-26T21:34:59.494Z,2.90
2018-01-26T21:37:27.153Z,2.80
2018-01-26T21:39:55.819Z,2.80
2018-01-26T21:42:24.455Z,2.80
2018-01-26T21:44:52.403Z,2.80
2018-01-26T21:47:20.018Z,2.80
2018-01-26T21:49:48.699Z,2.70
2018-01-26T21:52:16.552Z,2.80
2018-01-26T21:54:44.493Z,2.80
2018-01-26T21:57:12.112Z,2.80
2018-01-26T21:59:39.991Z,2.80
2018-01-26T22:02:07.608Z,2.80
2018-01-26T22:04:41.446Z,2.70
2018-01-26T22:10:14.805Z,2.80
2018-01-26T22:12:42.422Z,2.80
2018-01-26T22:15:10.286Z,2.80
2018-01-26T22:17:38.107Z,2.70
2018-01-26T22:20:06.080Z,2.70
2018-01-26T22:22:33.674Z,2.70
2018-01-26T22:25:01.287Z,2.70
2018-01-26T22:27:29.908Z,2.70
2018-01-26T22:29:57.506Z,2.70
2018-01-26T22:32:25.186Z,2.70
2018-01-26T22:34:52.787Z,2.70
2018-01-26T22:37:21.391Z,2.80
2018-01-26T22:39:49.273Z,2.70
2018-01-26T22:42:17.143Z,2.70
2018-01-26T22:44:45.769Z,2.70
2018-01-26T22:47:13.366Z,2.70
2018-01-26T22:49:41.794Z,2.70
2018-01-26T22:52:09.602Z,2.70
2018-01-26T22:54:37.423Z,2.70
2018-01-26T22:57:06.110Z,2.70
2018-01-26T22:59:33.982Z,2.70
2018-01-26T23:02:01.894Z,2.70
2018-01-26T23:04:29.718Z,2.70
2018-01-26T23:06:57.698Z,2.70
2018-01-26T23:09:25.760Z,2.80
2018-01-26T23:11:53.372Z,2.80
2018-01-26T23:14:21.027Z,2.80
2018-01-26T23:16:48.622Z,2.80
2018-01-26T23:19:16.214Z,2.80
2018-01-26T23:21:43.814Z,2.80
2018-01-26T23:24:11.423Z,2.80
2018-01-26T23:26:40.012Z,2.80
2018-01-26T23:29:08.735Z,2.80
2018-01-26T23:31:36.338Z,2.80
2018-01-26T23:34:04.270Z,2.80
2018-01-26T23:36:31.874Z,2.80
2018-01-26T23:38:59.465Z,2.80
2018-01-26T23:41:27.055Z,2.80
2018-01-26T23:43:54.647Z,2.80
2018-01-26T23:46:22.282Z,2.80
2018-01-26T23:48:49.870Z,2.80
2018-01-26T23:51:17.512Z,2.80
2018-01-26T23:53:45.102Z,2.80
2018-01-26T23:56:12.695Z,2.80
2018-01-26T23:58:40.310Z,2.80
